Time;durP1;ratioP1;P1;durP2;ratioP2;P2;SDS_P1;SDS_P2;PMS_P1;PMS_P2;Temp;Humidity;BMP_temperature;BMP_pressure;BME280_temperature;BME280_humidity;BME280_pressure;Samples;Min_cycle;Max_cycle;Signal;HPM_P1;HPM_P2
2022/06/21 00:02:12;;;;;;;4.32;2.15;;;;;;;;;;4954889;28;20259;-74
2022/06/21 00:04:38;;;;;;;4.80;1.88;;;;;;;;;;4954719;28;20388;-75
2022/06/21 00:07:05;;;;;;;2.35;1.60;;;;;;;;;;4954830;28;20087;-73
2022/06/21 00:09:31;;;;;;;5.75;3.05;;;;;;;;;;4954610;28;20027;-75
2022/06/21 00:11:57;;;;;;;4.10;1.65;;;;;;;;;;4954553;28;20027;-73
2022/06/21 00:14:22;;;;;;;1.98;1.38;;;;;;;;;;4954768;28;20054;-74
2022/06/21 00:16:48;;;;;;;4.57;3.78;;;;;;;;;;4956347;28;20059;-71
2022/06/21 00:19:21;;;;;;;4.10;1.70;;;;;;;;;;4973694;28;20077;-72
2022/06/21 00:21:47;;;;;;;4.43;1.73;;;;;;;;;;4973520;28;20027;-74
2022/06/21 00:24:13;;;;;;;3.20;1.85;;;;;;;;;;4973828;28;20031;-74
2022/06/21 00:26:39;;;;;;;6.28;2.08;;;;;;;;;;4972111;28;20541;-74
2022/06/21 00:29:05;;;;;;;5.38;2.00;;;;;;;;;;4973738;28;20533;-72
2022/06/21 00:31:35;;;;;;;3.40;2.03;;;;;;;;;;4973731;28;20027;-71
2022/06/21 00:34:06;;;;;;;4.43;2.17;;;;;;;;;;4973711;28;20031;-71
2022/06/21 00:36:36;;;;;;;3.50;2.03;;;;;;;;;;4973778;28;20035;-72
2022/06/21 00:39:03;;;;;;;5.93;2.30;;;;;;;;;;4973625;28;20038;-73
2022/06/21 00:41:56;;;;;;;6.15;2.30;;;;;;;;;;4973418;28;20327;-74
2022/06/21 00:44:43;;;;;;;3.92;2.00;;;;;;;;;;4973688;28;20026;-73
2022/06/21 00:47:24;;;;;;;5.13;2.28;;;;;;;;;;4970602;28;20030;-73
2022/06/21 00:49:52;;;;;;;;;;;;;;;;;;4974059;28;20035;-70
2022/06/21 00:52:24;;;;;;;4.43;2.20;;;;;;;;;;4973448;28;20008;-72
2022/06/21 00:55:06;;;;;;;6.68;2.72;;;;;;;;;;4977773;28;20069;-73
2022/06/21 00:57:52;;;;;;;5.95;2.33;;;;;;;;;;4979863;28;20035;-73
2022/06/21 01:00:26;;;;;;;5.57;2.03;;;;;;;;;;4980016;28;20038;-73
2022/06/21 01:02:53;;;;;;;6.80;2.20;;;;;;;;;;4979646;28;20031;-68
2022/06/21 01:05:19;;;;;;;7.10;2.28;;;;;;;;;;4979930;28;20499;-74
2022/06/21 01:07:46;;;;;;;4.78;2.70;;;;;;;;;;4979951;28;20030;-72
2022/06/21 01:10:16;;;;;;;5.47;2.33;;;;;;;;;;4979540;28;20085;-72
2022/06/21 01:12:45;;;;;;;4.82;2.42;;;;;;;;;;4979887;28;20031;-74
2022/06/21 01:15:35;;;;;;;4.95;2.70;;;;;;;;;;4978270;28;20392;-72
2022/06/21 01:18:04;;;;;;;7.80;2.50;;;;;;;;;;4979778;28;20034;-71
2022/06/21 01:20:32;;;;;;;4.35;2.53;;;;;;;;;;4979413;28;20066;-67
2022/06/21 01:23:22;;;;;;;4.57;2.60;;;;;;;;;;4979422;28;20031;-68
2022/06/21 01:26:15;;;;;;;7.72;2.72;;;;;;;;;;4979604;28;20049;-72
2022/06/21 01:28:40;;;;;;;6.70;2.60;;;;;;;;;;4979612;28;20058;-70
2022/06/21 01:31:07;;;;;;;3.97;2.75;;;;;;;;;;4979621;28;20081;-70
2022/06/21 01:33:36;;;;;;;6.25;3.08;;;;;;;;;;4979433;28;20019;-69
2022/06/21 01:36:11;;;;;;;5.43;2.90;;;;;;;;;;4979608;28;20353;-73
2022/06/21 01:38:59;;;;;;;4.95;2.83;;;;;;;;;;4979339;28;20491;-73
2022/06/21 01:41:49;;;;;;;5.00;2.83;;;;;;;;;;4979452;28;20062;-73
2022/06/21 01:44:20;;;;;;;3.35;2.70;;;;;;;;;;4938709;29;20490;-73
2022/06/21 01:46:46;;;;;;;5.43;3.22;;;;;;;;;;4922692;29;20055;-72
2022/06/21 01:49:15;;;;;;;3.70;2.80;;;;;;;;;;4938703;29;20044;-70
2022/06/21 01:51:48;;;;;;;6.65;2.90;;;;;;;;;;4938525;29;20040;-73
2022/06/21 01:54:17;;;;;;;8.82;3.35;;;;;;;;;;4938675;29;20047;-73
2022/06/21 01:56:46;;;;;;;6.72;3.00;;;;;;;;;;4938587;29;20500;-72
2022/06/21 01:59:17;;;;;;;4.93;3.00;;;;;;;;;;4938672;29;20307;-72
2022/06/21 02:01:51;;;;;;;6.85;3.50;;;;;;;;;;4938523;29;20055;-71
2022/06/21 02:04:21;;;;;;;4.45;3.20;;;;;;;;;;4938215;29;20032;-71
2022/06/21 02:06:48;;;;;;;7.80;3.63;;;;;;;;;;4935444;29;20082;-72
2022/06/21 02:09:30;;;;;;;6.70;3.55;;;;;;;;;;4935492;29;20043;-71
2022/06/21 02:12:03;;;;;;;7.10;3.80;;;;;;;;;;4935600;29;20059;-73
2022/06/21 02:14:31;;;;;;;7.80;3.38;;;;;;;;;;4935505;29;20035;-69
2022/06/21 02:17:18;;;;;;;5.75;3.70;;;;;;;;;;4934973;29;20043;-72
2022/06/21 02:19:49;;;;;;;7.25;3.85;;;;;;;;;;4935432;29;20473;-70
2022/06/21 02:22:19;;;;;;;5.25;3.85;;;;;;;;;;4953795;29;20126;-70
2022/06/21 02:24:45;;;;;;;6.30;3.38;;;;;;;;;;4956648;28;20028;-69
2022/06/21 02:27:14;;;;;;;11.20;5.35;;;;;;;;;;4956518;29;20384;-70
2022/06/21 02:29:43;;;;;;;6.28;4.22;;;;;;;;;;4956517;29;20062;-71
2022/06/21 02:32:28;;;;;;;7.85;3.50;;;;;;;;;;4959328;28;20030;-70
2022/06/21 02:35:02;;;;;;;5.78;3.83;;;;;;;;;;4975657;28;20450;-69
2022/06/21 02:37:29;;;;;;;6.43;3.83;;;;;;;;;;4975470;28;20037;-71
2022/06/21 02:39:56;;;;;;;7.40;4.25;;;;;;;;;;4975724;28;20027;-70
2022/06/21 02:42:26;;;;;;;6.85;3.90;;;;;;;;;;4975676;28;20031;-70
2022/06/21 02:45:07;;;;;;;11.70;4.38;;;;;;;;;;4975573;28;20027;-71
2022/06/21 02:47:39;;;;;;;6.85;4.10;;;;;;;;;;4975547;28;20030;-72
2022/06/21 02:50:22;;;;;;;7.55;4.15;;;;;;;;;;4975375;28;20035;-69
2022/06/21 02:52:50;;;;;;;5.10;4.10;;;;;;;;;;4975320;28;20109;-72
2022/06/21 02:55:25;;;;;;;6.55;4.00;;;;;;;;;;4975372;28;20027;-72
2022/06/21 02:58:01;;;;;;;11.70;4.30;;;;;;;;;;4975403;28;20034;-71
2022/06/21 03:00:27;;;;;;;6.50;3.78;;;;;;;;;;4975574;28;20396;-71
2022/06/21 03:02:53;;;;;;;9.80;5.00;;;;;;;;;;4975089;28;20022;-71
2022/06/21 03:05:25;;;;;;;8.27;4.30;;;;;;;;;;4975015;28;20023;-70
2022/06/21 03:07:54;;;;;;;6.45;4.30;;;;;;;;;;4975314;28;20429;-68
2022/06/21 03:10:28;;;;;;;9.40;4.40;;;;;;;;;;4974863;28;20543;-71
2022/06/21 03:13:23;;;;;;;7.35;4.50;;;;;;;;;;4974930;28;20027;-70
2022/06/21 03:15:58;;;;;;;7.00;4.30;;;;;;;;;;4974485;28;20054;-71
2022/06/21 03:18:28;;;;;;;8.68;4.72;;;;;;;;;;4989795;28;20460;-72
2022/06/21 03:20:55;;;;;;;5.38;4.43;;;;;;;;;;4994145;28;20081;-72
2022/06/21 03:23:21;;;;;;;7.90;4.35;;;;;;;;;;4994394;28;20137;-69
2022/06/21 03:25:53;;;;;;;8.52;4.50;;;;;;;;;;4994218;28;20071;-71
2022/06/21 03:28:27;;;;;;;7.55;4.65;;;;;;;;;;4994248;28;20109;-71
2022/06/21 03:31:03;;;;;;;8.13;4.47;;;;;;;;;;4994073;28;20030;-69
2022/06/21 03:33:30;;;;;;;7.93;4.47;;;;;;;;;;4993715;28;20387;-73
2022/06/21 03:35:56;;;;;;;6.50;4.78;;;;;;;;;;4993906;28;20034;-71
2022/06/21 03:38:23;;;;;;;10.73;4.50;;;;;;;;;;4992720;28;20479;-71
2022/06/21 03:43:43;;;;;;;7.70;4.28;;;;;;;;;;4993766;28;20073;-72
2022/06/21 03:46:16;;;;;;;6.82;4.05;;;;;;;;;;4993601;28;20110;-69
2022/06/21 03:48:54;;;;;;;10.88;4.55;;;;;;;;;;4993529;28;20068;-72
2022/06/21 03:51:27;;;;;;;6.60;4.43;;;;;;;;;;4993713;28;20034;-66
2022/06/21 03:54:23;;;;;;;5.22;4.18;;;;;;;;;;4992561;28;20458;-72
2022/06/21 03:57:06;;;;;;;9.07;4.70;;;;;;;;;;4993125;28;20082;-72
2022/06/21 03:59:39;;;;;;;9.70;4.35;;;;;;;;;;4993346;28;20472;-72
2022/06/21 04:02:42;;;;;;;7.93;4.25;;;;;;;;;;4993508;28;20362;-72
2022/06/21 04:05:16;;;;;;;5.50;3.88;;;;;;;;;;4993436;28;20054;-70
2022/06/21 04:08:13;;;;;;;8.93;4.65;;;;;;;;;;4993405;28;20022;-73
2022/06/21 04:10:45;;;;;;;8.30;4.25;;;;;;;;;;4993180;28;20090;-72
2022/06/21 04:13:19;;;;;;;5.30;3.92;;;;;;;;;;4993372;28;20089;-73
2022/06/21 04:15:51;;;;;;;9.85;4.53;;;;;;;;;;4993019;28;20117;-73
2022/06/21 04:18:32;;;;;;;6.28;4.07;;;;;;;;;;4992674;28;20046;-73
2022/06/21 04:21:02;;;;;;;5.75;3.90;;;;;;;;;;4993000;28;20033;-73
2022/06/21 04:23:47;;;;;;;5.38;3.92;;;;;;;;;;4993142;28;20109;-72
2022/06/21 04:26:31;;;;;;;12.20;4.30;;;;;;;;;;4993350;28;20178;-73
2022/06/21 04:29:05;;;;;;;7.53;4.00;;;;;;;;;;4986380;28;20353;-73
2022/06/21 04:31:54;;;;;;;6.30;4.03;;;;;;;;;;4973262;28;20031;-72
2022/06/21 04:34:37;;;;;;;8.60;4.25;;;;;;;;;;4973773;28;20027;-73
2022/06/21 04:37:14;;;;;;;8.85;4.32;;;;;;;;;;4973424;28;20039;-72
2022/06/21 04:39:57;;;;;;;6.55;4.20;;;;;;;;;;4972121;28;20026;-71
2022/06/21 04:42:32;;;;;;;7.32;4.13;;;;;;;;;;4973504;28;20030;-71
2022/06/21 04:45:13;;;;;;;7.88;3.92;;;;;;;;;;4973510;28;20466;-72
2022/06/21 04:47:48;;;;;;;;;;;;;;;;;;4973811;28;20027;-72
2022/06/21 04:50:23;;;;;;;9.75;4.47;;;;;;;;;;4973490;28;20300;-73
2022/06/21 04:52:57;;;;;;;7.38;4.53;;;;;;;;;;4973289;28;20050;-73
2022/06/21 04:55:45;;;;;;;9.48;4.50;;;;;;;;;;4973470;28;20062;-72
2022/06/21 04:58:11;;;;;;;6.25;4.50;;;;;;;;;;4973465;28;20031;-70
2022/06/21 05:00:37;;;;;;;13.40;4.28;;;;;;;;;;4973037;28;20022;-70
2022/06/21 05:03:12;;;;;;;8.05;4.55;;;;;;;;;;4973313;28;20158;-71
2022/06/21 05:05:38;;;;;;;10.85;4.53;;;;;;;;;;4973256;28;20114;-73
2022/06/21 05:08:09;;;;;;;10.07;5.18;;;;;;;;;;4973281;28;20551;-70
2022/06/21 05:10:41;;;;;;;10.57;4.70;;;;;;;;;;4973470;28;20031;-71
2022/06/21 05:13:20;;;;;;;11.35;4.90;;;;;;;;;;4973381;28;20027;-72
2022/06/21 05:15:46;;;;;;;8.60;5.03;;;;;;;;;;4972964;28;20054;-72
2022/06/21 05:18:17;;;;;;;7.68;4.50;;;;;;;;;;4986460;28;20034;-73
2022/06/21 05:20:52;;;;;;;11.18;4.90;;;;;;;;;;4992749;28;20037;-72
2022/06/21 05:23:18;;;;;;;8.73;5.60;;;;;;;;;;4992788;28;20097;-74
2022/06/21 05:25:45;;;;;;;9.38;4.72;;;;;;;;;;4992391;28;20038;-71
2022/06/21 05:28:29;;;;;;;8.13;5.40;;;;;;;;;;4992603;28;20030;-70
2022/06/21 05:31:13;;;;;;;13.68;5.10;;;;;;;;;;4992180;28;20026;-72
2022/06/21 05:33:44;;;;;;;9.82;5.38;;;;;;;;;;4992530;28;20045;-73
2022/06/21 05:36:13;;;;;;;7.72;4.88;;;;;;;;;;4992574;28;20068;-71
2022/06/21 05:38:58;;;;;;;8.70;5.05;;;;;;;;;;4992542;28;20050;-69
2022/06/21 05:41:30;;;;;;;10.02;5.82;;;;;;;;;;4996224;28;20036;-70
2022/06/21 05:44:11;;;;;;;8.38;5.05;;;;;;;;;;4996004;28;20034;-70
2022/06/21 05:46:42;;;;;;;7.15;5.22;;;;;;;;;;4965635;28;20028;-69
2022/06/21 05:49:24;;;;;;;9.25;5.80;;;;;;;;;;4973717;28;20050;-71
2022/06/21 05:51:51;;;;;;;10.15;5.30;;;;;;;;;;4976605;28;20109;-70
2022/06/21 05:54:20;;;;;;;9.48;6.30;;;;;;;;;;4976685;28;20026;-71
2022/06/21 05:56:48;;;;;;;9.63;5.68;;;;;;;;;;4976470;28;20073;-66
2022/06/21 05:59:17;;;;;;;9.77;5.30;;;;;;;;;;4976345;28;20483;-71
2022/06/21 06:01:45;;;;;;;9.75;4.95;;;;;;;;;;4976541;28;20022;-71
2022/06/21 06:04:29;;;;;;;9.00;4.75;;;;;;;;;;4973226;28;20027;-68
2022/06/21 06:06:57;;;;;;;10.45;5.50;;;;;;;;;;4967160;28;20030;-69
2022/06/21 06:09:30;;;;;;;7.38;5.10;;;;;;;;;;4974586;28;20117;-73
2022/06/21 06:12:08;;;;;;;7.82;4.53;;;;;;;;;;4976329;28;20106;-72
2022/06/21 06:14:43;;;;;;;8.38;4.90;;;;;;;;;;4974779;28;20018;-71
2022/06/21 06:17:36;;;;;;;11.02;5.30;;;;;;;;;;4973324;28;20042;-72
2022/06/21 06:20:12;;;;;;;7.07;4.38;;;;;;;;;;4976427;28;20038;-67
2022/06/21 06:22:43;;;;;;;6.38;4.32;;;;;;;;;;4976059;28;20526;-71
2022/06/21 06:25:19;;;;;;;8.77;4.43;;;;;;;;;;4976100;28;20050;-70
2022/06/21 06:28:23;;;;;;;9.90;4.47;;;;;;;;;;4975675;28;20101;-71
2022/06/21 06:30:57;;;;;;;8.13;4.10;;;;;;;;;;4974728;28;20475;-71
2022/06/21 06:33:30;;;;;;;10.48;4.13;;;;;;;;;;4975965;28;20027;-70
2022/06/21 06:35:57;;;;;;;6.85;3.40;;;;;;;;;;4975880;28;20114;-70
2022/06/21 06:38:23;;;;;;;11.55;4.00;;;;;;;;;;4975771;28;20086;-69
2022/06/21 06:41:18;;;;;;;6.07;3.67;;;;;;;;;;4975867;28;20404;-71
2022/06/21 06:43:51;;;;;;;9.68;3.40;;;;;;;;;;4970648;28;20070;-71
2022/06/21 06:46:43;;;;;;;7.32;2.85;;;;;;;;;;4975711;28;20062;-72
2022/06/21 06:49:23;;;;;;;9.38;3.03;;;;;;;;;;4972038;28;20034;-66
2022/06/21 06:52:34;;;;;;;6.93;3.20;;;;;;;;;;4974793;28;20065;-72
2022/06/21 06:55:13;;;;;;;10.18;3.42;;;;;;;;;;4970765;28;20027;-68
2022/06/21 06:57:57;;;;;;;8.10;3.10;;;;;;;;;;4975387;28;20081;-71
2022/06/21 07:00:27;;;;;;;7.05;2.55;;;;;;;;;;4975528;28;20114;-69
2022/06/21 07:03:00;;;;;;;;;;;;;;;;;;4975912;28;20057;-70
2022/06/21 07:05:50;;;;;;;8.18;3.30;;;;;;;;;;4975207;28;19914;-71
2022/06/21 07:08:24;;;;;;;8.80;3.40;;;;;;;;;;4975455;28;20031;-72
2022/06/21 07:10:52;;;;;;;7.82;3.25;;;;;;;;;;4975057;28;20037;-68
2022/06/21 07:13:19;;;;;;;6.22;2.60;;;;;;;;;;4975264;28;20030;-70
2022/06/21 07:15:47;;;;;;;8.02;2.55;;;;;;;;;;4974686;28;20051;-72
2022/06/21 07:18:27;;;;;;;11.10;3.47;;;;;;;;;;4988264;28;20423;-71
2022/06/21 07:20:53;;;;;;;8.25;2.70;;;;;;;;;;4994509;28;20026;-72
2022/06/21 07:23:23;;;;;;;7.70;2.92;;;;;;;;;;4994267;28;20034;-70
2022/06/21 07:25:49;;;;;;;;;;;;;;;;;;4994741;28;20023;-71
2022/06/21 07:28:23;;;;;;;8.25;2.40;;;;;;;;;;4994518;28;19936;-70
2022/06/21 07:30:52;;;;;;;7.43;2.65;;;;;;;;;;4994554;28;20049;-71
2022/06/21 07:33:27;;;;;;;5.63;2.20;;;;;;;;;;4994743;28;20033;-67
2022/06/21 07:35:59;;;;;;;8.18;1.77;;;;;;;;;;4994021;28;20030;-68
2022/06/21 07:38:36;;;;;;;4.50;1.90;;;;;;;;;;4994109;28;20471;-67
2022/06/21 07:41:10;;;;;;;3.35;1.55;;;;;;;;;;4993985;28;20471;-68
2022/06/21 07:43:47;;;;;;;7.55;1.90;;;;;;;;;;4994022;28;20109;-68
2022/06/21 07:46:22;;;;;;;10.30;1.75;;;;;;;;;;4994145;28;20110;-68
2022/06/21 07:48:54;;;;;;;4.40;1.48;;;;;;;;;;4989700;28;20472;-68
2022/06/21 07:51:22;;;;;;;6.15;1.40;;;;;;;;;;4973409;28;20102;-68
2022/06/21 07:54:07;;;;;;;3.58;1.35;;;;;;;;;;4973480;28;20035;-69
2022/06/21 07:56:39;;;;;;;7.60;1.63;;;;;;;;;;4974036;28;20023;-68
2022/06/21 07:59:16;;;;;;;6.05;1.90;;;;;;;;;;4974337;28;20090;-68
2022/06/21 08:08:13;;;;;;;5.82;1.33;;;;;;;;;;4933266;29;20095;-68
2022/06/21 08:10:45;;;;;;;5.82;1.50;;;;;;;;;;4933261;29;20524;-68
2022/06/21 08:13:11;;;;;;;5.85;1.63;;;;;;;;;;4933657;29;20046;-68
2022/06/21 08:15:43;;;;;;;3.58;1.30;;;;;;;;;;4933167;29;20043;-68
2022/06/21 08:18:29;;;;;;;8.13;1.60;;;;;;;;;;4945975;29;20035;-67
2022/06/21 08:21:07;;;;;;;5.75;1.58;;;;;;;;;;4946488;29;20561;-68
2022/06/21 08:23:40;;;;;;;4.13;1.30;;;;;;;;;;4933408;29;20143;-67
2022/06/21 08:26:17;;;;;;;11.50;1.98;;;;;;;;;;4932493;29;20035;-68
2022/06/21 08:29:06;;;;;;;7.95;1.20;;;;;;;;;;4933100;29;20054;-68
2022/06/21 08:31:35;;;;;;;4.45;1.40;;;;;;;;;;4933147;29;20125;-68
2022/06/21 08:34:06;;;;;;;6.22;1.48;;;;;;;;;;4933252;29;20540;-68
2022/06/21 08:36:43;;;;;;;4.45;1.60;;;;;;;;;;4932986;29;20134;-68
2022/06/21 08:39:22;;;;;;;9.25;1.80;;;;;;;;;;4933042;29;20039;-68
2022/06/21 08:41:57;;;;;;;5.00;1.58;;;;;;;;;;4950121;28;20034;-68
2022/06/21 08:48:33;;;;;;;11.75;1.98;;;;;;;;;;4973702;28;20034;-68
2022/06/21 08:51:17;;;;;;;;;;;;;;;;;;4973764;28;20042;-68
2022/06/21 08:54:01;;;;;;;8.77;1.88;;;;;;;;;;4973104;28;19921;-68
2022/06/21 08:56:37;;;;;;;5.90;1.27;;;;;;;;;;4973289;28;20121;-69
2022/06/21 08:59:19;;;;;;;12.32;2.03;;;;;;;;;;4973469;28;20093;-69
2022/06/21 09:02:03;;;;;;;4.72;1.33;;;;;;;;;;4973485;28;20041;-69
2022/06/21 09:04:42;;;;;;;7.70;1.70;;;;;;;;;;4973371;28;20049;-69
2022/06/21 09:07:29;;;;;;;5.27;1.50;;;;;;;;;;4966972;28;20027;-69
2022/06/21 09:10:09;;;;;;;7.35;1.25;;;;;;;;;;4972077;28;20758;-69
2022/06/21 09:12:53;;;;;;;5.07;1.42;;;;;;;;;;4972350;28;20349;-68
2022/06/21 09:15:26;;;;;;;7.78;1.60;;;;;;;;;;4975207;28;20101;-68
2022/06/21 09:18:17;;;;;;;8.63;1.60;;;;;;;;;;4987877;28;20042;-68
2022/06/21 09:20:59;;;;;;;5.63;1.65;;;;;;;;;;4996678;28;20031;-68
2022/06/21 09:23:43;;;;;;;6.32;1.40;;;;;;;;;;4992266;28;20026;-67
2022/06/21 09:26:32;;;;;;;5.65;1.20;;;;;;;;;;4973130;28;20093;-68
2022/06/21 09:29:21;;;;;;;11.18;1.70;;;;;;;;;;4936164;29;20036;-69
2022/06/21 09:32:19;;;;;;;5.67;1.50;;;;;;;;;;4936389;29;20043;-68
2022/06/21 09:34:53;;;;;;;4.95;1.67;;;;;;;;;;4936543;29;20390;-67
2022/06/21 09:37:25;;;;;;;5.43;1.70;;;;;;;;;;4935834;29;20138;-68
2022/06/21 09:40:25;;;;;;;10.35;2.05;;;;;;;;;;4936137;29;20035;-67
2022/06/21 09:43:21;;;;;;;6.35;1.63;;;;;;;;;;4934108;29;20040;-67
2022/06/21 09:46:02;;;;;;;6.03;1.90;;;;;;;;;;4935698;29;20050;-67
2022/06/21 09:48:58;;;;;;;5.65;1.80;;;;;;;;;;4936310;29;20528;-68
2022/06/21 09:51:47;;;;;;;6.28;1.58;;;;;;;;;;4935811;29;20098;-67
2022/06/21 09:54:35;;;;;;;10.40;1.88;;;;;;;;;;4936053;29;20036;-68
2022/06/21 09:57:19;;;;;;;5.53;1.67;;;;;;;;;;4935877;29;20183;-68
2022/06/21 10:00:05;;;;;;;4.10;1.60;;;;;;;;;;4935675;29;20050;-66
2022/06/21 10:02:48;;;;;;;5.70;1.60;;;;;;;;;;4935981;29;20028;-68
2022/06/21 10:05:33;;;;;;;4.53;1.52;;;;;;;;;;4941614;28;20035;-68
2022/06/21 10:08:34;;;;;;;6.10;1.42;;;;;;;;;;4976039;28;20030;-68
2022/06/21 10:11:15;;;;;;;7.85;1.80;;;;;;;;;;4975946;28;20042;-67
2022/06/21 10:13:53;;;;;;;7.47;1.52;;;;;;;;;;4976416;28;20115;-68
2022/06/21 10:16:42;;;;;;;8.75;1.60;;;;;;;;;;4976085;28;20055;-68
2022/06/21 10:19:23;;;;;;;7.78;1.20;;;;;;;;;;4956939;28;20110;-67
2022/06/21 10:21:58;;;;;;;5.55;1.70;;;;;;;;;;4956708;28;20035;-68
2022/06/21 10:24:26;;;;;;;4.85;1.50;;;;;;;;;;4956778;28;20428;-68
2022/06/21 10:26:55;;;;;;;8.02;1.55;;;;;;;;;;4955382;28;20122;-67
2022/06/21 10:29:20;;;;;;;3.75;1.50;;;;;;;;;;4956628;28;20026;-67
2022/06/21 10:32:13;;;;;;;3.58;1.08;;;;;;;;;;4956399;28;20035;-68
2022/06/21 10:34:53;;;;;;;4.55;1.40;;;;;;;;;;4956408;28;20106;-68
2022/06/21 10:37:30;;;;;;;4.85;1.40;;;;;;;;;;4956392;28;20027;-68
2022/06/21 10:40:22;;;;;;;6.53;1.40;;;;;;;;;;4974269;28;20026;-67
2022/06/21 10:43:16;;;;;;;10.52;1.52;;;;;;;;;;4975609;28;20404;-67
2022/06/21 10:46:09;;;;;;;5.10;1.52;;;;;;;;;;4975617;28;20039;-68
2022/06/21 10:48:47;;;;;;;7.07;1.73;;;;;;;;;;4975302;28;20051;-68
2022/06/21 10:51:36;;;;;;;3.35;1.05;;;;;;;;;;4975500;28;20488;-65
2022/06/21 10:54:10;;;;;;;6.73;1.30;;;;;;;;;;4975534;28;20030;-67
2022/06/21 11:02:45;;;;;;;7.05;1.95;;;;;;;;;;4975665;28;20102;-65
2022/06/21 11:05:28;;;;;;;6.82;1.55;;;;;;;;;;4975216;28;20457;-67
2022/06/21 11:08:17;;;;;;;6.85;1.40;;;;;;;;;;4975112;28;20086;-67
2022/06/21 11:10:52;;;;;;;4.85;1.52;;;;;;;;;;4975015;28;20085;-67
2022/06/21 11:13:20;;;;;;;5.28;1.33;;;;;;;;;;4974968;28;20026;-67
2022/06/21 11:16:13;;;;;;;5.75;1.65;;;;;;;;;;4974850;28;20459;-67
2022/06/21 11:18:57;;;;;;;5.05;1.20;;;;;;;;;;4986907;28;20039;-67
2022/06/21 11:21:51;;;;;;;5.93;1.42;;;;;;;;;;4994192;28;20443;-67
2022/06/21 11:24:30;;;;;;;6.32;1.60;;;;;;;;;;4994339;28;20025;-67
2022/06/21 11:27:28;;;;;;;5.80;1.60;;;;;;;;;;4994520;28;20065;-67
2022/06/21 11:30:00;;;;;;;5.82;1.35;;;;;;;;;;4994360;28;20070;-67
2022/06/21 11:32:38;;;;;;;4.22;1.30;;;;;;;;;;4994041;28;20030;-65
2022/06/21 11:35:24;;;;;;;5.03;1.30;;;;;;;;;;4994039;28;20034;-67
2022/06/21 11:38:07;;;;;;;5.40;1.20;;;;;;;;;;4993647;28;20026;-65
2022/06/21 11:40:33;;;;;;;6.05;1.65;;;;;;;;;;4994017;28;20038;-67
2022/06/21 11:42:59;;;;;;;6.93;1.70;;;;;;;;;;4993959;28;20172;-67
2022/06/21 11:45:39;;;;;;;9.70;2.28;;;;;;;;;;4993070;28;20041;-67
2022/06/21 11:48:24;;;;;;;5.60;1.30;;;;;;;;;;4974307;28;20034;-65
2022/06/21 11:51:01;;;;;;;3.55;1.58;;;;;;;;;;4973186;28;20041;-66
2022/06/21 11:53:51;;;;;;;2.90;1.30;;;;;;;;;;4974268;28;20033;-65
2022/06/21 11:56:28;;;;;;;;;;;;;;;;;;4974782;28;20030;-67
2022/06/21 11:58:54;;;;;;;3.50;1.38;;;;;;;;;;4974243;28;19914;-67
2022/06/21 12:01:30;;;;;;;6.05;1.40;;;;;;;;;;4974198;28;20027;-66
2022/06/21 12:04:37;;;;;;;7.20;1.27;;;;;;;;;;4974023;28;20067;-67
2022/06/21 12:07:13;;;;;;;8.25;1.33;;;;;;;;;;4933457;29;20036;-67
2022/06/21 12:09:47;;;;;;;6.40;1.10;;;;;;;;;;4933531;29;20074;-68
2022/06/21 12:12:36;;;;;;;6.15;1.25;;;;;;;;;;4933547;29;20469;-66
2022/06/21 12:15:35;;;;;;;3.03;0.90;;;;;;;;;;4933388;29;20122;-68
2022/06/21 12:18:10;;;;;;;3.60;0.80;;;;;;;;;;4933305;29;20063;-67
2022/06/21 12:20:45;;;;;;;2.95;0.85;;;;;;;;;;4933331;29;20039;-67
2022/06/21 12:23:41;;;;;;;4.13;1.02;;;;;;;;;;4933349;29;20090;-66
2022/06/21 12:26:10;;;;;;;3.63;0.90;;;;;;;;;;4933138;29;20066;-68
2022/06/21 12:28:37;;;;;;;4.35;0.95;;;;;;;;;;4933305;29;20054;-67
2022/06/21 12:31:12;;;;;;;2.45;0.90;;;;;;;;;;4933088;29;20497;-66
2022/06/21 12:33:39;;;;;;;3.42;0.90;;;;;;;;;;4933115;29;20080;-68
2022/06/21 12:36:13;;;;;;;2.08;0.75;;;;;;;;;;4933055;29;20036;-66
2022/06/21 12:38:44;;;;;;;3.80;1.00;;;;;;;;;;4933190;29;20059;-67
2022/06/21 12:41:32;;;;;;;2.55;0.70;;;;;;;;;;4944508;29;20043;-68
2022/06/21 12:44:12;;;;;;;5.90;1.13;;;;;;;;;;4954403;28;20031;-66
2022/06/21 12:46:48;;;;;;;3.60;0.98;;;;;;;;;;4954523;28;20462;-68
2022/06/21 12:49:36;;;;;;;2.70;0.90;;;;;;;;;;4953396;28;20027;-67
2022/06/21 12:52:12;;;;;;;4.13;0.70;;;;;;;;;;4966671;28;20030;-67
2022/06/21 12:54:50;;;;;;;4.60;1.00;;;;;;;;;;4973470;28;20023;-67
2022/06/21 12:57:53;;;;;;;4.93;0.80;;;;;;;;;;4973110;28;20030;-67
2022/06/21 13:00:37;;;;;;;3.08;0.82;;;;;;;;;;4973318;28;20066;-66
2022/06/21 13:03:27;;;;;;;2.13;0.68;;;;;;;;;;4973343;28;20106;-66
2022/06/21 13:05:52;;;;;;;;;;;;;;;;;;4973882;28;20031;-67
2022/06/21 13:08:30;;;;;;;2.95;0.77;;;;;;;;;;4973479;28;19921;-67
2022/06/21 13:11:14;;;;;;;4.53;1.40;;;;;;;;;;4973394;28;20031;-68
2022/06/21 13:13:45;;;;;;;4.78;1.08;;;;;;;;;;4973111;28;20043;-67
2022/06/21 13:16:28;;;;;;;6.95;1.00;;;;;;;;;;4972923;28;20051;-67
2022/06/21 13:19:18;;;;;;;2.10;0.60;;;;;;;;;;4992035;28;20529;-67
2022/06/21 13:22:12;;;;;;;1.73;0.88;;;;;;;;;;4992321;28;20022;-67
2022/06/21 13:25:24;;;;;;;2.53;0.80;;;;;;;;;;4992565;28;20511;-68
2022/06/21 13:28:09;;;;;;;3.10;1.00;;;;;;;;;;4992399;28;20026;-66
2022/06/21 13:30:43;;;;;;;2.00;0.60;;;;;;;;;;4992582;28;20031;-66
2022/06/21 13:33:39;;;;;;;3.13;0.80;;;;;;;;;;4992238;28;20085;-66
2022/06/21 13:36:20;;;;;;;2.13;0.57;;;;;;;;;;4988521;28;20042;-66
2022/06/21 13:39:01;;;;;;;2.15;0.77;;;;;;;;;;4992649;28;20218;-66
2022/06/21 13:44:59;;;;;;;1.60;0.65;;;;;;;;;;4977361;28;20177;-67
2022/06/21 13:47:41;;;;;;;1.00;0.50;;;;;;;;;;4972910;28;20038;-66
2022/06/21 13:50:09;;;;;;;1.42;0.70;;;;;;;;;;4972974;28;20027;-66
2022/06/21 13:52:47;;;;;;;3.03;0.90;;;;;;;;;;4973042;28;20026;-66
2022/06/21 13:55:45;;;;;;;3.13;0.70;;;;;;;;;;4972900;28;20043;-66
2022/06/21 13:58:19;;;;;;;2.70;0.68;;;;;;;;;;4972849;28;20027;-66
2022/06/21 14:00:56;;;;;;;3.80;0.60;;;;;;;;;;4974048;28;20026;-67
2022/06/21 14:03:37;;;;;;;4.75;0.70;;;;;;;;;;4975305;28;20033;-66
2022/06/21 14:06:13;;;;;;;5.25;1.00;;;;;;;;;;4976554;28;20034;-66
2022/06/21 14:09:03;;;;;;;1.80;0.68;;;;;;;;;;4976543;28;20027;-68
2022/06/21 14:11:48;;;;;;;4.50;0.98;;;;;;;;;;4975956;28;20041;-67
2022/06/21 14:14:25;;;;;;;2.28;0.85;;;;;;;;;;4976503;28;20035;-67
2022/06/21 14:16:55;;;;;;;3.65;0.90;;;;;;;;;;4978230;28;20071;-65
2022/06/21 14:19:36;;;;;;;4.60;0.70;;;;;;;;;;4995540;28;20038;-67
2022/06/21 14:22:26;;;;;;;2.67;0.90;;;;;;;;;;4995538;28;20085;-67
2022/06/21 14:25:03;;;;;;;3.47;1.13;;;;;;;;;;4995480;28;20045;-67
2022/06/21 14:27:41;;;;;;;2.15;0.85;;;;;;;;;;4995110;28;20113;-66
2022/06/21 14:30:12;;;;;;;5.40;1.08;;;;;;;;;;4995478;28;20032;-65
2022/06/21 14:32:41;;;;;;;5.53;0.88;;;;;;;;;;4995315;28;20026;-66
2022/06/21 14:35:21;;;;;;;3.35;0.95;;;;;;;;;;4995154;28;20018;-66
2022/06/21 14:38:08;;;;;;;3.70;0.80;;;;;;;;;;4995407;28;20121;-67
2022/06/21 14:40:46;;;;;;;3.30;0.80;;;;;;;;;;4995010;28;20102;-66
2022/06/21 14:43:32;;;;;;;1.33;0.80;;;;;;;;;;4995232;28;20038;-67
2022/06/21 14:46:07;;;;;;;4.43;1.10;;;;;;;;;;4995047;28;20365;-66
2022/06/21 14:48:55;;;;;;;2.92;0.85;;;;;;;;;;4995061;28;20030;-66
2022/06/21 14:51:28;;;;;;;2.33;0.75;;;;;;;;;;4994918;28;20027;-67
2022/06/21 14:54:05;;;;;;;2.22;0.70;;;;;;;;;;4994750;28;20353;-67
2022/06/21 14:56:52;;;;;;;2.30;0.88;;;;;;;;;;4993507;28;20030;-67
2022/06/21 14:59:26;;;;;;;2.97;0.90;;;;;;;;;;4994611;28;20029;-67
2022/06/21 15:02:25;;;;;;;3.42;0.95;;;;;;;;;;4994945;28;20024;-66
2022/06/21 15:05:05;;;;;;;2.37;0.80;;;;;;;;;;4994749;28;20365;-67
2022/06/21 15:07:37;;;;;;;2.92;1.05;;;;;;;;;;4994534;28;20073;-65
2022/06/21 15:10:19;;;;;;;2.33;1.00;;;;;;;;;;4994187;28;20096;-65
2022/06/21 15:12:52;;;;;;;3.97;1.13;;;;;;;;;;4993819;28;20051;-67
2022/06/21 15:15:21;;;;;;;6.07;0.93;;;;;;;;;;4994046;28;20404;-67
2022/06/21 15:18:02;;;;;;;2.67;0.80;;;;;;;;;;4994339;28;20100;-66
2022/06/21 15:20:45;;;;;;;1.73;0.80;;;;;;;;;;4994468;28;20057;-66
2022/06/21 15:23:10;;;;;;;3.47;0.93;;;;;;;;;;4994292;28;20026;-66
2022/06/21 15:25:44;;;;;;;3.80;1.10;;;;;;;;;;4993921;28;20543;-66
2022/06/21 15:28:24;;;;;;;7.03;1.00;;;;;;;;;;4994193;28;20038;-66
2022/06/21 15:31:07;;;;;;;4.50;0.93;;;;;;;;;;4994054;28;20037;-65
2022/06/21 15:33:37;;;;;;;3.53;0.80;;;;;;;;;;4993951;28;20034;-67
2022/06/21 15:36:30;;;;;;;3.13;1.60;;;;;;;;;;4994106;28;20038;-65
2022/06/21 15:39:04;;;;;;;3.95;1.00;;;;;;;;;;4993976;28;20383;-65
2022/06/21 15:41:42;;;;;;;2.28;1.00;;;;;;;;;;4993732;28;20374;-66
2022/06/21 15:44:26;;;;;;;3.08;0.95;;;;;;;;;;4994040;28;20432;-66
2022/06/21 15:52:33;;;;;;;4.30;1.00;;;;;;;;;;4993991;28;20029;-66
2022/06/21 15:55:23;;;;;;;2.22;0.80;;;;;;;;;;4993783;28;20035;-66
2022/06/21 15:57:55;;;;;;;;;;;;;;;;;;4994239;28;20114;-65
2022/06/21 16:00:31;;;;;;;1.98;0.80;;;;;;;;;;4993918;28;19940;-65
2022/06/21 16:03:18;;;;;;;2.63;0.80;;;;;;;;;;4993682;28;20042;-65
2022/06/21 16:05:56;;;;;;;2.42;0.80;;;;;;;;;;4993785;28;20034;-66
2022/06/21 16:08:34;;;;;;;1.83;0.90;;;;;;;;;;4993487;28;20116;-65
2022/06/21 16:11:12;;;;;;;6.60;0.88;;;;;;;;;;4990125;28;20034;-65
2022/06/21 16:13:38;;;;;;;2.17;0.80;;;;;;;;;;4974109;28;20038;-65